KGCY/GCY METAR and TAF weather

Enter ICAO airport designator
Station Type Date Time Source
KGCY METAR 2018/12/13 21:15 UTC NOAA

KGCY 132115Z AUTO 04005KT 10SM CLR 11/M00 A3015 RMK A01


Station Type Date Time Source
KGCY Decoded METAR 2018/12/13 21:15 UTC NOAA

Station name not available
Dec 13, 2018 - 04:15 PM EST / 2018.12.13 2115 UTC
Wind: from the NE (040 degrees) at 6 MPH (5 KT):0
Visibility: 10 mile(s):0
Sky conditions: clear
Temperature: 51 F (11 C)
Dew Point: 32 F (0 C)
Relative Humidity: 46%
Pressure (altimeter): 30.15 in. Hg (1020 hPa)
ob: KGCY 132115Z AUTO 04005KT 10SM CLR 11/M00 A3015 RMK A01
cycle: 21

Station Type Date Time Source
KGCY TAF UTC NOAA

Error!


Example: see airport list